Terminal Aerodrome Forecast
Issued by NWS

Home | Current Version | Previous Version | Text Only | Print | Product List | Glossary On
Versions: 1 2 3 4 5 6 7 8 9 10 11 12 13 14
000
FTUS46 KHNX 130536
TAFVIS
TAF
KVIS 130536Z 1306/1406 VRB03KT 3SM BR SKC
     FM130900 VRB02KT 1SM BR SKC
      TEMPO 1313/1317 1/2SM FG SKC
     FM131900 VRB03KT 3SM HZ SKC=

USA.gov is the U.S. government's official web portal to all federal, state and local government web resources and services.